createdAt,value
2023-05-10T00:00:45.612Z,0.00
2023-05-10T00:01:46.615Z,0.00
2023-05-10T00:02:44.886Z,0.02
2023-05-10T00:03:45.032Z,0.00
2023-05-10T00:04:46.081Z,0.02
2023-05-10T00:05:45.287Z,0.00
2023-05-10T00:06:45.556Z,0.00
2023-05-10T00:07:45.828Z,0.02
2023-05-10T00:08:44.818Z,0.00
2023-05-10T00:09:45.044Z,0.00
2023-05-10T00:10:45.216Z,0.02
2023-05-10T00:11:46.710Z,0.00
2023-05-10T00:12:45.605Z,0.01
2023-05-10T00:13:45.623Z,0.00
2023-05-10T00:14:44.863Z,0.00
2023-05-10T00:15:45.048Z,0.02
2023-05-10T00:16:46.213Z,0.02
2023-05-10T00:17:44.718Z,0.02
2023-05-10T00:18:44.893Z,0.02
2023-05-10T00:19:46.027Z,0.00
2023-05-10T00:20:46.127Z,0.00
2023-05-10T00:21:45.400Z,0.00
2023-05-10T00:22:45.450Z,0.00
2023-05-10T00:23:44.763Z,0.04
2023-05-10T00:24:44.883Z,0.00
2023-05-10T00:25:46.092Z,0.00
2023-05-10T00:26:45.371Z,0.00
2023-05-10T00:27:44.401Z,0.00
2023-05-10T00:28:44.601Z,0.00
2023-05-10T00:29:44.815Z,0.00
2023-05-10T00:30:44.968Z,0.00
2023-05-10T00:31:45.416Z,0.00
2023-05-10T00:32:45.424Z,0.02
2023-05-10T00:33:44.501Z,0.00
2023-05-10T00:34:44.715Z,0.02
2023-05-10T00:35:45.026Z,0.00
2023-05-10T00:36:45.134Z,0.00
2023-05-10T00:37:44.279Z,0.02
2023-05-10T00:38:44.480Z,0.00
2023-05-10T00:39:44.691Z,0.02
2023-05-10T00:40:44.886Z,0.02
2023-05-10T00:41:45.184Z,0.00
2023-05-10T00:42:44.224Z,0.00
2023-05-10T00:43:44.443Z,0.02
2023-05-10T00:44:44.680Z,0.00
2023-05-10T00:45:44.894Z,0.00
2023-05-10T00:46:45.060Z,0.02
2023-05-10T00:47:44.393Z,0.00
2023-05-10T00:48:44.451Z,0.00
2023-05-10T00:49:44.664Z,0.00
2023-05-10T00:50:44.849Z,0.02
2023-05-10T00:51:45.095Z,0.02
2023-05-10T00:52:44.194Z,0.02
2023-05-10T00:53:44.490Z,0.02
2023-05-10T00:54:44.590Z,0.01
2023-05-10T00:55:45.767Z,0.00
2023-05-10T00:56:45.965Z,0.00
2023-05-10T00:57:45.128Z,0.00
2023-05-10T00:58:45.385Z,0.00
2023-05-10T00:59:44.623Z,0.00
2023-05-10T01:00:44.783Z,0.00
2023-05-10T01:01:43.967Z,0.02
2023-05-10T01:02:45.118Z,0.00
2023-05-10T01:03:45.343Z,0.00
2023-05-10T01:04:44.625Z,0.00
2023-05-10T01:05:44.804Z,0.00
2023-05-10T01:06:44.902Z,0.04
2023-05-10T01:07:44.132Z,0.02
2023-05-10T01:08:44.324Z,0.00
2023-05-10T01:09:44.552Z,0.00
2023-05-10T01:10:44.752Z,0.02
2023-05-10T01:11:43.943Z,0.02
2023-05-10T01:12:45.129Z,0.02
2023-05-10T01:13:44.319Z,0.00
2023-05-10T01:14:44.546Z,0.00
2023-05-10T01:15:44.784Z,0.02
2023-05-10T01:16:43.936Z,0.00
2023-05-10T01:17:44.589Z,0.00
2023-05-10T01:18:44.344Z,0.00
2023-05-10T01:19:44.564Z,0.00
2023-05-10T01:20:43.728Z,0.00
2023-05-10T01:21:43.932Z,0.00
2023-05-10T01:22:45.145Z,0.00
2023-05-10T01:23:44.465Z,0.00
2023-05-10T01:24:44.580Z,0.00
2023-05-10T01:25:43.751Z,0.01
2023-05-10T01:26:44.898Z,0.00
2023-05-10T01:27:44.152Z,0.00
2023-05-10T01:28:44.389Z,0.00
2023-05-10T01:29:44.619Z,0.02
2023-05-10T01:30:44.740Z,0.02
2023-05-10T01:31:44.119Z,0.00
2023-05-10T01:32:44.253Z,0.02
2023-05-10T01:33:44.412Z,0.00
2023-05-10T01:34:43.572Z,0.00
2023-05-10T01:35:43.842Z,0.02
2023-05-10T01:36:43.995Z,0.00
2023-05-10T01:37:44.186Z,0.00
2023-05-10T01:38:44.404Z,0.00
2023-05-10T01:39:43.554Z,0.00
2023-05-10T01:40:43.802Z,0.02
2023-05-10T01:41:44.025Z,0.00
2023-05-10T01:42:44.209Z,0.00
2023-05-10T01:43:44.382Z,0.00
2023-05-10T01:44:43.542Z,0.00
2023-05-10T01:45:43.767Z,0.00
2023-05-10T01:46:43.975Z,0.02
2023-05-10T01:47:44.209Z,0.00
2023-05-10T01:48:43.371Z,0.00
2023-05-10T01:49:43.548Z,0.02
2023-05-10T01:50:43.759Z,0.02
2023-05-10T01:51:43.971Z,0.00
2023-05-10T01:52:44.184Z,0.02
2023-05-10T01:53:43.427Z,0.00
2023-05-10T01:54:43.542Z,0.02
2023-05-10T01:55:44.706Z,0.00
2023-05-10T01:56:43.948Z,0.00
2023-05-10T01:57:44.160Z,0.00
2023-05-10T01:58:43.328Z,0.00
2023-05-10T01:59:43.584Z,0.02
2023-05-10T02:00:43.778Z,0.00
2023-05-10T02:01:43.925Z,0.02
2023-05-10T02:02:44.172Z,0.00
2023-05-10T02:03:43.344Z,0.02
2023-05-10T02:04:43.525Z,0.00
2023-05-10T02:05:43.763Z,0.00
2023-05-10T02:06:44.889Z,0.00
2023-05-10T02:07:44.080Z,0.00
2023-05-10T02:08:44.265Z,0.02
2023-05-10T02:09:43.504Z,0.00
2023-05-10T02:10:44.692Z,0.00
2023-05-10T02:11:44.402Z,0.00
2023-05-10T02:12:43.220Z,0.02
2023-05-10T02:13:44.272Z,0.02
2023-05-10T02:14:44.499Z,0.02
2023-05-10T02:15:43.733Z,0.00
2023-05-10T02:16:43.996Z,0.02
2023-05-10T02:17:43.181Z,0.02
2023-05-10T02:18:43.400Z,0.00
2023-05-10T02:19:43.558Z,0.06
2023-05-10T02:20:43.759Z,0.02
2023-05-10T02:21:44.036Z,0.00
2023-05-10T02:22:43.526Z,0.00
2023-05-10T02:23:44.348Z,0.00
2023-05-10T02:24:43.620Z,0.02
2023-05-10T02:25:43.831Z,0.02
2023-05-10T02:26:42.985Z,0.02
2023-05-10T02:27:44.180Z,0.00
2023-05-10T02:28:43.512Z,0.02
2023-05-10T02:29:44.658Z,0.02
2023-05-10T02:30:42.857Z,0.00
2023-05-10T02:31:43.112Z,0.02
2023-05-10T02:32:43.328Z,0.00
2023-05-10T02:33:43.520Z,0.02
2023-05-10T02:34:43.724Z,0.00
2023-05-10T02:35:42.892Z,0.00
2023-05-10T02:36:43.087Z,0.00
2023-05-10T02:37:43.306Z,0.02
2023-05-10T02:38:43.576Z,0.00
2023-05-10T02:39:44.033Z,0.02
2023-05-10T02:40:43.857Z,0.00
2023-05-10T02:41:43.127Z,0.00
2023-05-10T02:42:43.375Z,0.00
2023-05-10T02:43:44.545Z,0.02
2023-05-10T02:44:43.733Z,0.02
2023-05-10T02:45:43.036Z,0.00
2023-05-10T02:46:43.256Z,0.00
2023-05-10T02:47:43.495Z,0.02
2023-05-10T02:48:42.631Z,0.00
2023-05-10T02:49:42.818Z,0.02
2023-05-10T02:50:43.056Z,0.02
2023-05-10T02:51:43.251Z,0.02
2023-05-10T02:52:43.467Z,0.02
2023-05-10T02:53:42.642Z,0.00
2023-05-10T02:54:42.850Z,0.00
2023-05-10T02:55:43.056Z,0.00
2023-05-10T02:56:43.644Z,0.00
2023-05-10T02:57:42.433Z,0.00
2023-05-10T02:58:42.686Z,0.00
2023-05-10T02:59:43.882Z,0.00
2023-05-10T03:00:44.019Z,0.02
2023-05-10T03:01:44.317Z,0.00
2023-05-10T03:02:42.473Z,0.02
2023-05-10T03:03:42.705Z,0.02
2023-05-10T03:04:42.966Z,0.00
2023-05-10T03:05:43.051Z,0.02
2023-05-10T03:06:43.283Z,0.01
2023-05-10T03:07:42.459Z,0.01
2023-05-10T03:08:42.700Z,0.01
2023-05-10T03:09:43.833Z,0.01
2023-05-10T03:10:43.137Z,0.01
2023-05-10T03:11:43.232Z,0.03
2023-05-10T03:12:43.448Z,0.03
2023-05-10T03:13:42.677Z,0.02
2023-05-10T03:14:42.949Z,0.03
2023-05-10T03:15:43.119Z,0.06
2023-05-10T03:16:44.757Z,0.04
2023-05-10T03:17:42.499Z,0.06
2023-05-10T03:18:42.679Z,0.08
2023-05-10T03:19:42.901Z,0.11
2023-05-10T03:20:43.100Z,0.11
2023-05-10T03:21:42.253Z,0.31
2023-05-10T03:22:43.415Z,0.25
2023-05-10T03:23:43.638Z,0.25
2023-05-10T03:24:43.855Z,0.26
2023-05-10T03:25:43.031Z,0.26
2023-05-10T03:26:42.633Z,0.12
2023-05-10T03:27:42.438Z,0.23
2023-05-10T03:28:42.649Z,0.26
2023-05-10T03:29:42.894Z,0.21
2023-05-10T03:30:43.041Z,0.22
2023-05-10T03:31:42.368Z,0.22
2023-05-10T03:32:42.511Z,0.24
2023-05-10T03:33:42.644Z,0.22
2023-05-10T03:34:43.808Z,0.23
2023-05-10T03:35:42.040Z,0.23
2023-05-10T03:36:42.223Z,0.29
2023-05-10T03:37:42.511Z,0.34
2023-05-10T03:38:42.697Z,0.43
2023-05-10T03:39:41.879Z,0.59
2023-05-10T03:40:42.072Z,0.67
2023-05-10T03:41:42.287Z,0.75
2023-05-10T03:42:42.539Z,0.90
2023-05-10T03:43:42.769Z,1.42
2023-05-10T03:44:41.905Z,1.64
2023-05-10T03:45:43.130Z,2.13
2023-05-10T03:46:42.406Z,2.51
2023-05-10T03:47:42.612Z,2.65
2023-05-10T03:48:41.778Z,3.04
2023-05-10T03:49:42.877Z,2.89
2023-05-10T03:50:43.110Z,2.78
2023-05-10T03:51:43.303Z,3.04
2023-05-10T03:52:43.563Z,3.34
2023-05-10T03:53:41.751Z,3.93
2023-05-10T03:54:41.964Z,4.15
2023-05-10T03:55:42.185Z,4.45
2023-05-10T03:56:43.341Z,4.35
2023-05-10T03:57:43.515Z,4.47
2023-05-10T03:58:41.726Z,4.85
2023-05-10T03:59:42.020Z,4.64
2023-05-10T04:00:43.104Z,4.92
2023-05-10T04:01:42.388Z,5.19
2023-05-10T04:02:43.177Z,6.67
2023-05-10T04:03:42.752Z,7.51
2023-05-10T04:04:42.860Z,8.38
2023-05-10T04:05:42.132Z,9.44
2023-05-10T04:06:42.404Z,10.47
2023-05-10T04:07:43.474Z,11.84
2023-05-10T04:08:42.710Z,13.33
2023-05-10T04:09:41.864Z,15.43
2023-05-10T04:10:42.047Z,16.21
2023-05-10T04:11:42.293Z,16.58
2023-05-10T04:12:42.510Z,16.54
2023-05-10T04:13:42.643Z,16.50
2023-05-10T04:14:41.827Z,15.92
2023-05-10T04:15:42.019Z,15.14
2023-05-10T04:16:42.313Z,14.89
2023-05-10T04:17:41.577Z,14.99
2023-05-10T04:18:42.530Z,14.51
2023-05-10T04:19:42.750Z,15.09
2023-05-10T04:20:42.991Z,15.81
2023-05-10T04:21:43.149Z,16.00
2023-05-10T04:22:42.306Z,16.89
2023-05-10T04:23:42.612Z,17.68
2023-05-10T04:24:42.754Z,18.07
2023-05-10T04:25:42.985Z,19.25
2023-05-10T04:26:42.152Z,20.47
2023-05-10T04:27:42.272Z,22.72
2023-05-10T04:28:42.473Z,27.15
2023-05-10T04:29:41.737Z,26.94
2023-05-10T04:30:42.910Z,29.51
2023-05-10T04:31:43.109Z,32.74
2023-05-10T04:32:42.357Z,35.65
2023-05-10T04:33:42.496Z,37.02
2023-05-10T04:34:42.743Z,35.18
2023-05-10T04:35:42.928Z,30.92
2023-05-10T04:36:42.107Z,26.98
2023-05-10T04:37:41.422Z,23.51
2023-05-10T04:38:41.754Z,20.47
2023-05-10T04:39:42.684Z,18.37
2023-05-10T04:40:41.926Z,18.68
2023-05-10T04:41:41.114Z,17.90
2023-05-10T04:42:42.277Z,17.59
2023-05-10T04:43:41.508Z,18.06
2023-05-10T04:44:41.725Z,17.47
2023-05-10T04:45:41.933Z,16.03
2023-05-10T04:46:41.936Z,15.32
2023-05-10T04:47:41.361Z,17.61
2023-05-10T04:48:41.582Z,22.20
2023-05-10T04:49:41.778Z,27.86
2023-05-10T04:50:40.951Z,33.15
2023-05-10T04:51:41.171Z,33.76
2023-05-10T04:52:43.450Z,34.03
2023-05-10T04:53:43.040Z,36.83
2023-05-10T04:54:41.789Z,38.78
2023-05-10T04:55:41.904Z,43.80
2023-05-10T04:56:42.234Z,47.54
2023-05-10T04:57:42.324Z,43.07
2023-05-10T04:58:42.552Z,40.62
2023-05-10T04:59:42.776Z,40.52
2023-05-10T05:00:41.967Z,37.87
2023-05-10T05:01:42.145Z,36.17
2023-05-10T05:02:41.413Z,34.25
2023-05-10T05:03:42.662Z,34.49
2023-05-10T05:04:41.793Z,37.41
2023-05-10T05:05:40.939Z,40.88
2023-05-10T05:06:42.085Z,41.95
2023-05-10T05:07:41.358Z,43.63
2023-05-10T05:08:41.557Z,47.39
2023-05-10T05:09:44.965Z,47.95
2023-05-10T05:10:41.877Z,45.75
2023-05-10T05:11:41.110Z,43.83
2023-05-10T05:12:41.325Z,41.34
2023-05-10T05:13:41.510Z,47.82
2023-05-10T05:14:40.649Z,57.02
2023-05-10T05:15:40.887Z,63.55
2023-05-10T05:16:41.098Z,64.46
2023-05-10T05:17:41.221Z,64.29
2023-05-10T05:18:42.391Z,69.17
2023-05-10T05:19:42.564Z,74.38
2023-05-10T05:20:40.704Z,75.97
2023-05-10T05:21:41.262Z,76.84
2023-05-10T05:22:41.091Z,75.20
2023-05-10T05:23:42.230Z,75.65
2023-05-10T05:24:42.406Z,78.68
2023-05-10T05:25:40.597Z,81.39
2023-05-10T05:26:40.814Z,81.12
2023-05-10T05:27:41.013Z,84.43
2023-05-10T05:28:41.190Z,78.81
2023-05-10T05:29:41.386Z,75.62
2023-05-10T05:30:40.515Z,70.60
2023-05-10T05:31:40.726Z,60.81
2023-05-10T05:32:41.908Z,53.32
2023-05-10T05:33:41.175Z,49.29
2023-05-10T05:34:41.375Z,49.47
2023-05-10T05:35:40.557Z,53.24
2023-05-10T05:36:40.790Z,51.55
2023-05-10T05:37:40.994Z,50.39
2023-05-10T05:38:41.189Z,53.86
2023-05-10T05:39:40.403Z,59.71
2023-05-10T05:40:40.545Z,69.61
2023-05-10T05:41:41.707Z,77.82
2023-05-10T05:42:41.962Z,85.42
2023-05-10T05:43:42.103Z,93.75
2023-05-10T05:44:40.320Z,97.33
2023-05-10T05:45:40.688Z,97.96
2023-05-10T05:46:41.693Z,102.85
2023-05-10T05:47:41.920Z,109.90
2023-05-10T05:48:41.162Z,115.13
2023-05-10T05:49:40.286Z,115.76
2023-05-10T05:50:40.444Z,115.89
2023-05-10T05:51:40.683Z,120.07
2023-05-10T05:52:40.901Z,124.07
2023-05-10T05:53:41.083Z,127.05
2023-05-10T05:54:41.294Z,130.66
2023-05-10T05:55:41.398Z,135.98
2023-05-10T05:56:41.748Z,140.83
2023-05-10T05:57:40.881Z,146.07
2023-05-10T05:58:41.053Z,152.21
2023-05-10T05:59:40.204Z,154.17
2023-05-10T06:00:40.426Z,155.15
2023-05-10T06:01:40.680Z,155.67
2023-05-10T06:02:41.019Z,159.32
2023-05-10T06:03:41.166Z,165.32
2023-05-10T06:04:42.674Z,168.90
2023-05-10T06:05:40.488Z,161.33
2023-05-10T06:06:40.681Z,146.50
2023-05-10T06:07:41.016Z,136.09
2023-05-10T06:08:40.109Z,133.42
2023-05-10T06:09:40.326Z,132.75
2023-05-10T06:10:40.607Z,134.28
2023-05-10T06:11:40.848Z,145.48
2023-05-10T06:12:39.997Z,163.81
2023-05-10T06:13:40.002Z,183.37
2023-05-10T06:14:40.161Z,189.97
2023-05-10T06:15:40.387Z,209.13
2023-05-10T06:16:40.640Z,222.10
2023-05-10T06:17:40.996Z,227.99
2023-05-10T06:18:40.929Z,227.06
2023-05-10T06:19:40.275Z,221.54
2023-05-10T06:20:41.302Z,224.98
2023-05-10T06:21:40.552Z,229.63
2023-05-10T06:22:40.728Z,235.33
2023-05-10T06:23:39.893Z,234.26
2023-05-10T06:24:40.107Z,236.31
2023-05-10T06:25:40.389Z,233.65
2023-05-10T06:26:40.526Z,246.53
2023-05-10T06:27:39.676Z,264.99
2023-05-10T06:28:39.896Z,283.37
2023-05-10T06:29:40.124Z,285.91
2023-05-10T06:30:40.383Z,285.20
2023-05-10T06:31:40.609Z,287.26
2023-05-10T06:32:39.762Z,291.72
2023-05-10T06:33:39.910Z,295.56
2023-05-10T06:34:40.215Z,308.59
2023-05-10T06:35:40.372Z,308.44
2023-05-10T06:36:39.596Z,313.59
2023-05-10T06:37:39.811Z,317.46
2023-05-10T06:38:39.973Z,305.77
2023-05-10T06:39:41.130Z,314.13
2023-05-10T06:40:41.320Z,315.11
2023-05-10T06:41:39.516Z,328.59
2023-05-10T06:42:39.642Z,382.59
2023-05-10T06:43:40.753Z,375.36
2023-05-10T06:44:40.912Z,350.12
2023-05-10T06:45:40.121Z,358.95
2023-05-10T06:46:40.339Z,372.61
2023-05-10T06:47:40.374Z,386.58
2023-05-10T06:48:39.640Z,394.07
2023-05-10T06:49:39.777Z,409.76
2023-05-10T06:50:39.960Z,421.54
2023-05-10T06:51:40.160Z,423.92
2023-05-10T06:52:40.326Z,415.24
2023-05-10T06:53:40.494Z,389.92
2023-05-10T06:54:39.877Z,349.84
2023-05-10T06:55:39.959Z,300.72
2023-05-10T06:56:40.186Z,288.47
2023-05-10T06:57:40.392Z,281.30
2023-05-10T06:58:39.622Z,263.96
2023-05-10T06:59:39.696Z,253.97
2023-05-10T07:00:39.951Z,243.59
2023-05-10T07:01:40.081Z,230.43
2023-05-10T07:02:39.273Z,222.37
2023-05-10T07:03:40.421Z,214.60
2023-05-10T07:04:39.612Z,204.18
2023-05-10T07:05:39.907Z,192.87
2023-05-10T07:06:40.078Z,185.11
2023-05-10T07:07:40.182Z,186.49
2023-05-10T07:08:39.300Z,188.61
2023-05-10T07:09:39.551Z,200.67
2023-05-10T07:10:39.704Z,204.37
2023-05-10T07:11:39.945Z,199.49
2023-05-10T07:12:39.159Z,201.22
2023-05-10T07:13:39.342Z,201.83
2023-05-10T07:14:39.555Z,194.22
2023-05-10T07:15:40.676Z,190.16
2023-05-10T07:16:41.022Z,190.90
2023-05-10T07:17:43.390Z,192.62
2023-05-10T07:18:40.278Z,196.86
2023-05-10T07:19:40.382Z,209.19
2023-05-10T07:20:39.694Z,230.39
2023-05-10T07:21:39.847Z,249.96
2023-05-10T07:22:38.958Z,262.89
2023-05-10T07:23:39.186Z,264.88
2023-05-10T07:24:39.330Z,260.15
2023-05-10T07:25:39.535Z,254.02
2023-05-10T07:26:39.734Z,249.42
2023-05-10T07:27:39.907Z,248.18
2023-05-10T07:28:39.076Z,248.76
2023-05-10T07:29:39.442Z,252.74
2023-05-10T07:30:40.474Z,262.21
2023-05-10T07:31:40.694Z,273.30
2023-05-10T07:32:39.872Z,279.21
2023-05-10T07:33:40.090Z,277.20
2023-05-10T07:34:39.267Z,270.65
2023-05-10T07:35:39.472Z,262.77
2023-05-10T07:36:39.618Z,255.18
2023-05-10T07:37:38.776Z,247.61
2023-05-10T07:38:40.901Z,242.75
2023-05-10T07:39:39.145Z,243.43
2023-05-10T07:40:39.357Z,249.86
2023-05-10T07:41:39.694Z,259.33
2023-05-10T07:42:38.692Z,271.73
2023-05-10T07:43:38.989Z,282.29
2023-05-10T07:44:40.080Z,292.88
2023-05-10T07:45:39.393Z,298.84
2023-05-10T07:46:39.518Z,301.91
2023-05-10T07:47:38.703Z,310.42
2023-05-10T07:48:38.837Z,299.32
2023-05-10T07:49:38.978Z,300.24
2023-05-10T07:50:39.178Z,308.38
2023-05-10T07:51:39.409Z,311.65
2023-05-10T07:52:38.548Z,320.25
2023-05-10T07:53:38.856Z,327.48
2023-05-10T07:54:39.941Z,328.89
2023-05-10T07:55:39.127Z,329.21
2023-05-10T07:56:40.296Z,332.57
2023-05-10T07:57:39.537Z,357.78
2023-05-10T07:58:38.663Z,374.80
2023-05-10T07:59:38.943Z,390.53
2023-05-10T08:00:39.045Z,396.83
2023-05-10T08:01:39.274Z,395.75
2023-05-10T08:02:39.510Z,389.23
2023-05-10T08:03:38.757Z,386.77
2023-05-10T08:04:38.856Z,386.37
2023-05-10T08:05:39.058Z,381.23
2023-05-10T08:06:39.182Z,371.51
2023-05-10T08:07:38.316Z,361.16
2023-05-10T08:08:38.511Z,348.30
2023-05-10T08:09:38.680Z,336.42
2023-05-10T08:10:38.917Z,311.10
2023-05-10T08:11:39.165Z,304.57
2023-05-10T08:12:39.294Z,301.83
2023-05-10T08:13:39.514Z,300.36
2023-05-10T08:14:39.760Z,299.69
2023-05-10T08:15:39.910Z,299.08
2023-05-10T08:16:40.093Z,304.67
2023-05-10T08:17:38.450Z,315.21
2023-05-10T08:18:38.424Z,346.42
2023-05-10T08:19:38.797Z,362.96
2023-05-10T08:20:38.779Z,374.28
2023-05-10T08:21:38.944Z,370.77
2023-05-10T08:22:39.160Z,361.57
2023-05-10T08:23:38.297Z,351.42
2023-05-10T08:24:38.512Z,306.08
2023-05-10T08:25:38.685Z,300.28
2023-05-10T08:26:38.889Z,304.55
2023-05-10T08:27:39.050Z,314.17
2023-05-10T08:28:38.227Z,322.60
2023-05-10T08:29:49.717Z,329.40
2023-05-10T08:30:39.629Z,349.37
2023-05-10T08:31:38.844Z,350.82
2023-05-10T08:32:39.010Z,333.42
2023-05-10T08:33:40.896Z,329.34
2023-05-10T08:34:38.303Z,328.11
2023-05-10T08:35:38.495Z,331.93
2023-05-10T08:36:38.797Z,336.76
2023-05-10T08:37:38.905Z,356.15
2023-05-10T08:38:38.009Z,343.43
2023-05-10T08:39:38.238Z,362.18
2023-05-10T08:40:38.408Z,369.59
2023-05-10T08:41:38.558Z,377.56
2023-05-10T08:42:38.847Z,385.96
2023-05-10T08:43:37.966Z,396.18
2023-05-10T08:44:38.263Z,408.31
2023-05-10T08:45:38.362Z,423.29
2023-05-10T08:46:38.577Z,437.67
2023-05-10T08:47:38.796Z,452.04
2023-05-10T08:48:38.809Z,446.60
2023-05-10T08:49:38.093Z,423.05
2023-05-10T08:50:38.248Z,415.69
2023-05-10T08:51:39.719Z,414.19
2023-05-10T08:52:39.625Z,407.88
2023-05-10T08:53:38.749Z,397.98
2023-05-10T08:54:37.954Z,386.56
2023-05-10T08:55:38.115Z,374.87
2023-05-10T08:56:38.400Z,359.35
2023-05-10T08:57:38.558Z,339.45
2023-05-10T08:58:37.685Z,300.48
2023-05-10T08:59:37.911Z,271.74
2023-05-10T09:00:38.284Z,249.65
2023-05-10T09:01:38.318Z,231.28
2023-05-10T09:02:38.560Z,212.01
2023-05-10T09:03:37.651Z,196.75
2023-05-10T09:04:37.932Z,183.87
2023-05-10T09:05:37.997Z,175.25
2023-05-10T09:06:38.177Z,174.26
2023-05-10T09:07:38.365Z,177.18
2023-05-10T09:08:37.865Z,181.01
2023-05-10T09:09:38.820Z,188.31
2023-05-10T09:10:37.951Z,190.60
2023-05-10T09:11:38.135Z,185.30
2023-05-10T09:12:38.300Z,177.72
2023-05-10T09:13:37.473Z,172.75
2023-05-10T09:14:37.749Z,169.06
2023-05-10T09:15:37.829Z,159.20
2023-05-10T09:16:38.226Z,142.90
2023-05-10T09:17:38.211Z,133.26
2023-05-10T09:18:38.432Z,128.06
2023-05-10T09:19:37.538Z,128.92
2023-05-10T09:20:37.761Z,124.68
2023-05-10T09:21:37.955Z,117.25
2023-05-10T09:22:38.145Z,111.91
2023-05-10T09:23:37.295Z,105.73
2023-05-10T09:24:37.517Z,99.05
2023-05-10T09:25:37.745Z,93.80
2023-05-10T09:26:38.028Z,91.30
2023-05-10T09:27:38.160Z,92.60
2023-05-10T09:28:37.295Z,99.88
2023-05-10T09:29:37.567Z,116.99
2023-05-10T09:30:37.750Z,142.93
2023-05-10T09:31:37.925Z,169.15
2023-05-10T09:32:39.821Z,187.80
2023-05-10T09:33:37.339Z,199.62
2023-05-10T09:34:37.526Z,209.97
2023-05-10T09:35:37.704Z,220.90
2023-05-10T09:36:38.012Z,225.59
2023-05-10T09:37:38.105Z,239.65
2023-05-10T09:38:37.632Z,255.92
2023-05-10T09:39:38.398Z,273.65
2023-05-10T09:40:37.726Z,295.41
2023-05-10T09:41:38.956Z,313.55
2023-05-10T09:42:39.024Z,347.96
2023-05-10T09:43:37.286Z,369.19
2023-05-10T09:44:37.422Z,389.63
2023-05-10T09:45:39.274Z,410.98
2023-05-10T09:46:37.957Z,431.30
2023-05-10T09:47:39.038Z,445.63
2023-05-10T09:48:37.198Z,455.38
2023-05-10T09:49:37.349Z,467.01
2023-05-10T09:50:37.558Z,493.67
2023-05-10T09:51:37.725Z,526.65
2023-05-10T09:52:37.923Z,554.35
2023-05-10T09:53:38.215Z,564.69
2023-05-10T09:54:37.344Z,574.20
2023-05-10T09:55:37.534Z,592.75
2023-05-10T09:56:37.726Z,615.74
2023-05-10T09:57:36.865Z,634.50
2023-05-10T09:58:37.094Z,636.51
2023-05-10T09:59:37.380Z,632.60
2023-05-10T10:00:37.550Z,615.87
2023-05-10T10:01:38.784Z,610.90
2023-05-10T10:02:37.934Z,613.37
2023-05-10T10:03:38.123Z,628.96
2023-05-10T10:04:38.311Z,652.17
2023-05-10T10:05:37.534Z,668.42
2023-05-10T10:06:37.718Z,742.02
2023-05-10T10:07:37.838Z,790.61
2023-05-10T10:08:38.012Z,788.98
2023-05-10T10:09:38.274Z,836.28
2023-05-10T10:10:38.452Z,794.69
2023-05-10T10:11:37.751Z,774.41
2023-05-10T10:12:37.880Z,864.16
2023-05-10T10:13:37.137Z,796.74
2023-05-10T10:14:38.233Z,716.80
2023-05-10T10:15:37.536Z,730.24
2023-05-10T10:16:36.677Z,722.93
2023-05-10T10:17:36.976Z,733.91
2023-05-10T10:18:37.023Z,708.88
2023-05-10T10:19:39.222Z,678.43
2023-05-10T10:20:37.362Z,681.40
2023-05-10T10:21:37.568Z,651.29
2023-05-10T10:22:36.690Z,643.04
2023-05-10T10:23:36.918Z,701.93
2023-05-10T10:24:37.062Z,756.09
2023-05-10T10:25:37.260Z,836.62
2023-05-10T10:26:38.393Z,908.72
2023-05-10T10:27:39.599Z,950.72
2023-05-10T10:28:36.778Z,971.65
2023-05-10T10:29:37.046Z,972.76
2023-05-10T10:30:38.119Z,959.61
2023-05-10T10:31:37.582Z,948.22
2023-05-10T10:32:37.496Z,940.53
2023-05-10T10:33:37.619Z,957.47
2023-05-10T10:34:36.838Z,984.58
2023-05-10T10:35:38.058Z,953.84
2023-05-10T10:36:37.302Z,907.28
2023-05-10T10:37:36.397Z,951.93
2023-05-10T10:38:36.554Z,974.49
2023-05-10T10:39:36.792Z,1011.93
2023-05-10T10:40:36.952Z,1038.28
2023-05-10T10:41:37.217Z,991.11
2023-05-10T10:42:36.248Z,1014.34
2023-05-10T10:43:36.516Z,1104.29
2023-05-10T10:44:36.688Z,1182.52
2023-05-10T10:45:36.815Z,1321.26
2023-05-10T10:46:37.108Z,832.67
2023-05-10T10:47:37.219Z,728.44
2023-05-10T10:48:37.284Z,648.70
2023-05-10T10:49:37.416Z,582.33
2023-05-10T10:50:37.577Z,488.36
2023-05-10T10:51:37.739Z,410.32
2023-05-10T10:52:37.903Z,369.87
2023-05-10T10:53:37.167Z,341.96
2023-05-10T10:54:37.208Z,336.40
2023-05-10T10:55:37.374Z,349.08
2023-05-10T10:56:37.154Z,363.21
2023-05-10T10:57:36.762Z,374.99
2023-05-10T10:58:36.912Z,385.38
2023-05-10T10:59:36.071Z,400.03
2023-05-10T11:00:37.408Z,385.20
2023-05-10T11:01:36.564Z,385.43
2023-05-10T11:02:36.534Z,407.73
2023-05-10T11:03:36.691Z,435.34
2023-05-10T11:04:37.019Z,413.02
2023-05-10T11:05:36.961Z,372.13
2023-05-10T11:06:38.167Z,348.10
2023-05-10T11:07:36.358Z,344.18
2023-05-10T11:08:38.199Z,328.77
2023-05-10T11:09:36.694Z,332.63
2023-05-10T11:10:36.967Z,387.40
2023-05-10T11:11:37.020Z,574.19
2023-05-10T11:12:36.230Z,592.20
2023-05-10T11:13:37.358Z,558.95
2023-05-10T11:14:37.613Z,519.22
2023-05-10T11:15:36.794Z,481.56
2023-05-10T11:16:36.066Z,507.70
2023-05-10T11:17:36.113Z,546.25
2023-05-10T11:18:36.321Z,605.93
2023-05-10T11:19:36.456Z,665.28
2023-05-10T11:20:36.671Z,688.51
2023-05-10T11:21:36.756Z,692.08
2023-05-10T11:22:36.115Z,683.50
2023-05-10T11:23:37.148Z,660.57
2023-05-10T11:24:37.242Z,639.86
2023-05-10T11:25:37.509Z,618.20
2023-05-10T11:26:37.696Z,596.35
2023-05-10T11:27:36.757Z,576.13
2023-05-10T11:28:36.042Z,550.64
2023-05-10T11:29:37.098Z,533.90
2023-05-10T11:30:37.363Z,532.91
2023-05-10T11:31:36.552Z,528.66
2023-05-10T11:32:36.742Z,511.64
2023-05-10T11:33:36.870Z,501.59
2023-05-10T11:34:36.228Z,508.42
2023-05-10T11:35:37.217Z,517.37
2023-05-10T11:36:37.513Z,529.43
2023-05-10T11:37:36.570Z,531.71
2023-05-10T11:38:35.803Z,531.43
2023-05-10T11:39:36.920Z,524.17
2023-05-10T11:40:36.180Z,513.24
2023-05-10T11:41:37.258Z,511.92
2023-05-10T11:42:36.476Z,518.40
2023-05-10T11:43:35.603Z,528.28
2023-05-10T11:44:35.827Z,541.98
2023-05-10T11:45:36.886Z,559.48
2023-05-10T11:46:36.319Z,585.99
2023-05-10T11:47:36.310Z,602.33
2023-05-10T11:48:35.441Z,608.30
2023-05-10T11:49:35.585Z,615.67
2023-05-10T11:50:35.738Z,625.59
2023-05-10T11:51:35.897Z,634.73
2023-05-10T11:52:36.073Z,637.02
2023-05-10T11:53:36.209Z,645.58
2023-05-10T11:54:35.346Z,653.61
2023-05-10T11:55:35.476Z,653.01
2023-05-10T11:56:35.697Z,642.70
2023-05-10T11:57:35.838Z,629.95
2023-05-10T11:58:36.020Z,621.13
2023-05-10T11:59:37.125Z,618.45
2023-05-10T12:00:37.317Z,612.70
2023-05-10T12:01:36.482Z,604.11
2023-05-10T12:02:35.797Z,597.21
2023-05-10T12:03:35.975Z,595.21
2023-05-10T12:04:36.099Z,593.90
2023-05-10T12:05:36.131Z,601.21
2023-05-10T12:06:35.310Z,618.59
2023-05-10T12:07:36.409Z,636.30
2023-05-10T12:08:35.645Z,642.41
2023-05-10T12:09:43.912Z,640.69
2023-05-10T12:10:36.985Z,630.57
2023-05-10T12:11:36.061Z,617.89
2023-05-10T12:12:35.180Z,610.51
2023-05-10T12:13:35.304Z,598.17
2023-05-10T12:14:35.494Z,599.71
2023-05-10T12:15:35.603Z,594.65
2023-05-10T12:16:35.857Z,584.67
2023-05-10T12:17:35.970Z,577.96
2023-05-10T12:18:35.054Z,577.90
2023-05-10T12:19:35.199Z,576.85
2023-05-10T12:20:35.348Z,570.35
2023-05-10T12:21:35.534Z,562.70
2023-05-10T12:22:35.707Z,552.95
2023-05-10T12:23:36.798Z,544.18
2023-05-10T12:24:35.925Z,531.61
2023-05-10T12:25:36.083Z,517.03
2023-05-10T12:26:35.291Z,498.82
2023-05-10T12:27:35.482Z,479.11
2023-05-10T12:28:35.637Z,459.71
2023-05-10T12:29:36.735Z,437.76
2023-05-10T12:30:34.873Z,416.83
2023-05-10T12:31:35.079Z,399.76
2023-05-10T12:32:36.162Z,386.19
2023-05-10T12:33:35.294Z,375.30
2023-05-10T12:34:35.556Z,367.38
2023-05-10T12:35:36.582Z,367.85
2023-05-10T12:36:36.751Z,367.32
2023-05-10T12:37:34.917Z,366.01
2023-05-10T12:38:36.021Z,364.12
2023-05-10T12:39:36.230Z,363.47
2023-05-10T12:40:35.363Z,363.30
2023-05-10T12:41:36.462Z,362.98
2023-05-10T12:42:35.676Z,354.34
2023-05-10T12:43:35.818Z,334.90
2023-05-10T12:44:34.923Z,298.29
2023-05-10T12:45:35.213Z,279.94
2023-05-10T12:46:35.300Z,266.01